sensor_id;sensor_type;location;lat;lon;timestamp;P1;durP1;ratioP1;P2;durP2;ratioP2
57087;SDS011;42965;52.846;6.614;2022-10-14T00:01:30;104.40;;;50.75;;
57087;SDS011;42965;52.846;6.614;2022-10-14T00:03:50;88.53;;;47.72;;
57087;SDS011;42965;52.846;6.614;2022-10-14T00:06:19;80.32;;;46.63;;
57087;SDS011;42965;52.846;6.614;2022-10-14T00:08:50;78.93;;;46.00;;
57087;SDS011;42965;52.846;6.614;2022-10-14T00:11:18;77.80;;;44.47;;
57087;SDS011;42965;52.846;6.614;2022-10-14T00:13:50;81.93;;;44.22;;
57087;SDS011;42965;52.846;6.614;2022-10-14T00:16:20;71.25;;;40.72;;
57087;SDS011;42965;52.846;6.614;2022-10-14T00:21:17;62.05;;;37.95;;
57087;SDS011;42965;52.846;6.614;2022-10-14T00:23:44;101.82;;;42.47;;
57087;SDS011;42965;52.846;6.614;2022-10-14T00:26:19;221.32;;;39.88;;
57087;SDS011;42965;52.846;6.614;2022-10-14T00:28:50;350.55;;;47.33;;
57087;SDS011;42965;52.846;6.614;2022-10-14T00:31:16;316.13;;;44.17;;
57087;SDS011;42965;52.846;6.614;2022-10-14T00:33:49;222.02;;;42.03;;
57087;SDS011;42965;52.846;6.614;2022-10-14T00:36:18;152.57;;;42.72;;
57087;SDS011;42965;52.846;6.614;2022-10-14T00:38:46;283.83;;;48.45;;
57087;SDS011;42965;52.846;6.614;2022-10-14T00:41:14;318.17;;;50.72;;
57087;SDS011;42965;52.846;6.614;2022-10-14T00:46:28;434.45;;;61.55;;
57087;SDS011;42965;52.846;6.614;2022-10-14T00:49:03;428.27;;;59.00;;
57087;SDS011;42965;52.846;6.614;2022-10-14T00:51:33;360.08;;;54.45;;
57087;SDS011;42965;52.846;6.614;2022-10-14T00:54:01;287.33;;;47.25;;
57087;SDS011;42965;52.846;6.614;2022-10-14T00:56:28;405.73;;;59.10;;
57087;SDS011;42965;52.846;6.614;2022-10-14T00:58:56;399.15;;;54.45;;
57087;SDS011;42965;52.846;6.614;2022-10-14T01:01:24;384.30;;;51.97;;
57087;SDS011;42965;52.846;6.614;2022-10-14T01:03:53;451.02;;;59.63;;
57087;SDS011;42965;52.846;6.614;2022-10-14T01:09:27;467.15;;;65.95;;
57087;SDS011;42965;52.846;6.614;2022-10-14T01:20:29;233.45;;;45.50;;
57087;SDS011;42965;52.846;6.614;2022-10-14T01:31:22;263.52;;;44.90;;
57087;SDS011;42965;52.846;6.614;2022-10-14T01:33:55;166.55;;;35.42;;
57087;SDS011;42965;52.846;6.614;2022-10-14T01:36:29;204.07;;;33.95;;
57087;SDS011;42965;52.846;6.614;2022-10-14T01:39:22;301.85;;;41.95;;
57087;SDS011;42965;52.846;6.614;2022-10-14T01:42:12;227.80;;;38.13;;
57087;SDS011;42965;52.846;6.614;2022-10-14T01:44:46;242.38;;;39.65;;
57087;SDS011;42965;52.846;6.614;2022-10-14T01:47:20;283.60;;;42.80;;
57087;SDS011;42965;52.846;6.614;2022-10-14T01:49:53;231.63;;;37.22;;
57087;SDS011;42965;52.846;6.614;2022-10-14T01:52:24;414.80;;;53.47;;
57087;SDS011;42965;52.846;6.614;2022-10-14T01:57:26;249.07;;;30.38;;
57087;SDS011;42965;52.846;6.614;2022-10-14T01:59:55;205.77;;;28.08;;
57087;SDS011;42965;52.846;6.614;2022-10-14T02:02:23;239.35;;;31.25;;
57087;SDS011;42965;52.846;6.614;2022-10-14T02:04:49;215.90;;;28.83;;
57087;SDS011;42965;52.846;6.614;2022-10-14T02:09:55;224.35;;;32.00;;
57087;SDS011;42965;52.846;6.614;2022-10-14T02:12:41;153.02;;;28.70;;
57087;SDS011;42965;52.846;6.614;2022-10-14T02:15:23;283.67;;;35.55;;
57087;SDS011;42965;52.846;6.614;2022-10-14T02:24:19;217.60;;;32.42;;
57087;SDS011;42965;52.846;6.614;2022-10-14T02:26:47;228.93;;;34.97;;
57087;SDS011;42965;52.846;6.614;2022-10-14T02:29:16;201.77;;;32.03;;
57087;SDS011;42965;52.846;6.614;2022-10-14T02:31:45;158.32;;;29.95;;
57087;SDS011;42965;52.846;6.614;2022-10-14T02:34:13;184.93;;;29.20;;
57087;SDS011;42965;52.846;6.614;2022-10-14T02:36:43;207.60;;;29.42;;
57087;SDS011;42965;52.846;6.614;2022-10-14T02:39:11;192.77;;;26.65;;
57087;SDS011;42965;52.846;6.614;2022-10-14T02:41:41;226.25;;;29.80;;
57087;SDS011;42965;52.846;6.614;2022-10-14T02:44:07;223.80;;;30.63;;
57087;SDS011;42965;52.846;6.614;2022-10-14T02:46:34;196.70;;;29.40;;
57087;SDS011;42965;52.846;6.614;2022-10-14T02:49:00;242.10;;;33.25;;
57087;SDS011;42965;52.846;6.614;2022-10-14T02:51:27;150.70;;;28.35;;
57087;SDS011;42965;52.846;6.614;2022-10-14T02:53:53;247.40;;;36.10;;
57087;SDS011;42965;52.846;6.614;2022-10-14T02:56:23;243.63;;;35.15;;
57087;SDS011;42965;52.846;6.614;2022-10-14T02:58:50;227.45;;;32.60;;
57087;SDS011;42965;52.846;6.614;2022-10-14T03:01:16;229.93;;;32.88;;
57087;SDS011;42965;52.846;6.614;2022-10-14T03:03:43;168.90;;;27.20;;
57087;SDS011;42965;52.846;6.614;2022-10-14T03:06:12;180.07;;;26.63;;
57087;SDS011;42965;52.846;6.614;2022-10-14T03:08:39;219.00;;;31.75;;
57087;SDS011;42965;52.846;6.614;2022-10-14T03:11:07;265.77;;;33.45;;
57087;SDS011;42965;52.846;6.614;2022-10-14T03:13:33;263.25;;;34.20;;
57087;SDS011;42965;52.846;6.614;2022-10-14T03:16:00;232.80;;;30.77;;
57087;SDS011;42965;52.846;6.614;2022-10-14T03:18:26;196.25;;;29.50;;
57087;SDS011;42965;52.846;6.614;2022-10-14T03:23:31;178.68;;;29.08;;
57087;SDS011;42965;52.846;6.614;2022-10-14T03:25:57;252.02;;;33.45;;
57087;SDS011;42965;52.846;6.614;2022-10-14T03:28:28;220.85;;;32.85;;
57087;SDS011;42965;52.846;6.614;2022-10-14T03:31:02;170.10;;;29.38;;
57087;SDS011;42965;52.846;6.614;2022-10-14T03:34:04;150.00;;;30.52;;
57087;SDS011;42965;52.846;6.614;2022-10-14T03:36:31;211.73;;;31.40;;
57087;SDS011;42965;52.846;6.614;2022-10-14T03:38:57;195.68;;;31.48;;
57087;SDS011;42965;52.846;6.614;2022-10-14T03:41:33;269.95;;;39.47;;
57087;SDS011;42965;52.846;6.614;2022-10-14T03:43:59;257.20;;;38.70;;
57087;SDS011;42965;52.846;6.614;2022-10-14T03:46:26;241.65;;;40.22;;
57087;SDS011;42965;52.846;6.614;2022-10-14T03:48:52;198.48;;;39.33;;
57087;SDS011;42965;52.846;6.614;2022-10-14T03:51:19;134.65;;;31.90;;
57087;SDS011;42965;52.846;6.614;2022-10-14T03:53:45;185.38;;;37.25;;
57087;SDS011;42965;52.846;6.614;2022-10-14T03:56:16;153.63;;;34.58;;
57087;SDS011;42965;52.846;6.614;2022-10-14T03:58:45;167.25;;;34.92;;
57087;SDS011;42965;52.846;6.614;2022-10-14T04:01:13;157.30;;;32.95;;
57087;SDS011;42965;52.846;6.614;2022-10-14T04:04:03;180.98;;;34.35;;
57087;SDS011;42965;52.846;6.614;2022-10-14T04:06:29;154.80;;;32.67;;
57087;SDS011;42965;52.846;6.614;2022-10-14T04:08:57;184.05;;;35.97;;
57087;SDS011;42965;52.846;6.614;2022-10-14T04:11:29;186.13;;;35.15;;
57087;SDS011;42965;52.846;6.614;2022-10-14T04:14:02;210.90;;;39.22;;
57087;SDS011;42965;52.846;6.614;2022-10-14T04:16:31;241.90;;;38.63;;
57087;SDS011;42965;52.846;6.614;2022-10-14T04:19:06;249.93;;;40.85;;
57087;SDS011;42965;52.846;6.614;2022-10-14T04:21:33;199.35;;;38.42;;
57087;SDS011;42965;52.846;6.614;2022-10-14T04:23:59;176.65;;;36.40;;
57087;SDS011;42965;52.846;6.614;2022-10-14T04:26:42;190.43;;;39.22;;
57087;SDS011;42965;52.846;6.614;2022-10-14T04:29:19;161.95;;;36.75;;
57087;SDS011;42965;52.846;6.614;2022-10-14T04:31:54;189.18;;;40.25;;
57087;SDS011;42965;52.846;6.614;2022-10-14T04:34:21;204.27;;;39.17;;
57087;SDS011;42965;52.846;6.614;2022-10-14T04:36:48;191.27;;;36.03;;
57087;SDS011;42965;52.846;6.614;2022-10-14T04:39:24;163.13;;;35.72;;
57087;SDS011;42965;52.846;6.614;2022-10-14T04:41:51;176.68;;;37.83;;
57087;SDS011;42965;52.846;6.614;2022-10-14T04:44:20;177.13;;;38.22;;
57087;SDS011;42965;52.846;6.614;2022-10-14T04:46:49;151.45;;;33.72;;
57087;SDS011;42965;52.846;6.614;2022-10-14T04:49:18;137.63;;;35.28;;
57087;SDS011;42965;52.846;6.614;2022-10-14T04:51:52;208.60;;;37.92;;
57087;SDS011;42965;52.846;6.614;2022-10-14T04:54:37;170.23;;;34.38;;
57087;SDS011;42965;52.846;6.614;2022-10-14T04:57:03;160.55;;;35.80;;
57087;SDS011;42965;52.846;6.614;2022-10-14T04:59:30;212.70;;;39.00;;
57087;SDS011;42965;52.846;6.614;2022-10-14T05:02:31;193.07;;;38.60;;
57087;SDS011;42965;52.846;6.614;2022-10-14T05:04:59;199.02;;;38.72;;
57087;SDS011;42965;52.846;6.614;2022-10-14T05:07:29;181.00;;;37.78;;
57087;SDS011;42965;52.846;6.614;2022-10-14T05:10:06;175.90;;;36.47;;
57087;SDS011;42965;52.846;6.614;2022-10-14T05:12:41;172.98;;;37.67;;
57087;SDS011;42965;52.846;6.614;2022-10-14T05:15:08;226.88;;;42.42;;
57087;SDS011;42965;52.846;6.614;2022-10-14T05:17:46;210.65;;;40.05;;
57087;SDS011;42965;52.846;6.614;2022-10-14T05:20:16;257.85;;;40.58;;
57087;SDS011;42965;52.846;6.614;2022-10-14T05:22:47;173.07;;;38.88;;
57087;SDS011;42965;52.846;6.614;2022-10-14T05:25:14;104.95;;;31.63;;
57087;SDS011;42965;52.846;6.614;2022-10-14T05:27:41;153.70;;;36.35;;
57087;SDS011;42965;52.846;6.614;2022-10-14T05:30:08;118.68;;;40.30;;
57087;SDS011;42965;52.846;6.614;2022-10-14T05:32:41;143.43;;;35.67;;
57087;SDS011;42965;52.846;6.614;2022-10-14T05:35:08;127.25;;;34.15;;
57087;SDS011;42965;52.846;6.614;2022-10-14T05:37:37;107.82;;;33.72;;
57087;SDS011;42965;52.846;6.614;2022-10-14T05:40:04;92.65;;;32.65;;
57087;SDS011;42965;52.846;6.614;2022-10-14T05:42:34;107.88;;;35.00;;
57087;SDS011;42965;52.846;6.614;2022-10-14T05:45:01;121.88;;;35.53;;
57087;SDS011;42965;52.846;6.614;2022-10-14T05:47:29;130.43;;;42.50;;
57087;SDS011;42965;52.846;6.614;2022-10-14T05:50:00;125.28;;;40.85;;
57087;SDS011;42965;52.846;6.614;2022-10-14T05:52:29;138.43;;;40.78;;
57087;SDS011;42965;52.846;6.614;2022-10-14T05:54:58;152.43;;;40.97;;
57087;SDS011;42965;52.846;6.614;2022-10-14T05:57:26;133.43;;;41.97;;
57087;SDS011;42965;52.846;6.614;2022-10-14T05:59:53;148.15;;;44.15;;
57087;SDS011;42965;52.846;6.614;2022-10-14T06:02:20;147.50;;;46.10;;
57087;SDS011;42965;52.846;6.614;2022-10-14T06:04:46;161.32;;;45.40;;
57087;SDS011;42965;52.846;6.614;2022-10-14T06:07:13;170.32;;;48.95;;
57087;SDS011;42965;52.846;6.614;2022-10-14T06:09:40;163.07;;;49.33;;
57087;SDS011;42965;52.846;6.614;2022-10-14T06:12:08;156.95;;;50.08;;
57087;SDS011;42965;52.846;6.614;2022-10-14T06:14:35;138.70;;;47.40;;
57087;SDS011;42965;52.846;6.614;2022-10-14T06:17:04;147.35;;;50.38;;
57087;SDS011;42965;52.846;6.614;2022-10-14T06:19:31;121.60;;;50.45;;
57087;SDS011;42965;52.846;6.614;2022-10-14T06:21:58;118.32;;;60.92;;
57087;SDS011;42965;52.846;6.614;2022-10-14T06:24:24;126.55;;;54.40;;
57087;SDS011;42965;52.846;6.614;2022-10-14T06:26:50;116.82;;;45.42;;
57087;SDS011;42965;52.846;6.614;2022-10-14T06:29:17;112.85;;;44.15;;
57087;SDS011;42965;52.846;6.614;2022-10-14T06:31:43;106.38;;;44.38;;
57087;SDS011;42965;52.846;6.614;2022-10-14T06:34:10;91.18;;;38.50;;
57087;SDS011;42965;52.846;6.614;2022-10-14T06:36:37;87.28;;;38.03;;
57087;SDS011;42965;52.846;6.614;2022-10-14T06:39:03;89.35;;;38.92;;
57087;SDS011;42965;52.846;6.614;2022-10-14T06:41:30;87.55;;;37.53;;
57087;SDS011;42965;52.846;6.614;2022-10-14T06:43:57;84.50;;;35.85;;
57087;SDS011;42965;52.846;6.614;2022-10-14T06:46:23;82.20;;;34.83;;
57087;SDS011;42965;52.846;6.614;2022-10-14T06:48:50;85.22;;;38.28;;
57087;SDS011;42965;52.846;6.614;2022-10-14T06:51:16;92.72;;;36.63;;
57087;SDS011;42965;52.846;6.614;2022-10-14T06:53:43;82.45;;;35.95;;
57087;SDS011;42965;52.846;6.614;2022-10-14T06:56:09;73.63;;;34.28;;
57087;SDS011;42965;52.846;6.614;2022-10-14T06:58:36;68.78;;;34.65;;
57087;SDS011;42965;52.846;6.614;2022-10-14T07:01:03;68.97;;;33.88;;
57087;SDS011;42965;52.846;6.614;2022-10-14T07:03:33;68.93;;;34.00;;
57087;SDS011;42965;52.846;6.614;2022-10-14T07:06:05;67.63;;;32.60;;
57087;SDS011;42965;52.846;6.614;2022-10-14T07:08:32;63.78;;;32.60;;
57087;SDS011;42965;52.846;6.614;2022-10-14T07:10:58;60.78;;;32.15;;
57087;SDS011;42965;52.846;6.614;2022-10-14T07:13:24;64.07;;;31.42;;
57087;SDS011;42965;52.846;6.614;2022-10-14T07:15:52;56.83;;;30.58;;
57087;SDS011;42965;52.846;6.614;2022-10-14T07:18:18;63.05;;;31.92;;
57087;SDS011;42965;52.846;6.614;2022-10-14T07:20:45;59.88;;;30.65;;
57087;SDS011;42965;52.846;6.614;2022-10-14T07:23:11;55.90;;;30.83;;
57087;SDS011;42965;52.846;6.614;2022-10-14T07:25:38;56.95;;;30.77;;
57087;SDS011;42965;52.846;6.614;2022-10-14T07:28:04;57.25;;;32.65;;
57087;SDS011;42965;52.846;6.614;2022-10-14T07:30:31;64.93;;;32.13;;
57087;SDS011;42965;52.846;6.614;2022-10-14T07:32:57;59.42;;;32.80;;
57087;SDS011;42965;52.846;6.614;2022-10-14T07:35:24;53.50;;;31.15;;
57087;SDS011;42965;52.846;6.614;2022-10-14T07:37:51;61.65;;;31.27;;
57087;SDS011;42965;52.846;6.614;2022-10-14T07:40:18;53.95;;;30.60;;
57087;SDS011;42965;52.846;6.614;2022-10-14T07:42:44;51.80;;;31.08;;
57087;SDS011;42965;52.846;6.614;2022-10-14T07:45:12;57.00;;;30.77;;
57087;SDS011;42965;52.846;6.614;2022-10-14T07:47:43;59.03;;;32.30;;
57087;SDS011;42965;52.846;6.614;2022-10-14T07:50:12;54.00;;;29.73;;
57087;SDS011;42965;52.846;6.614;2022-10-14T07:52:38;52.28;;;31.80;;
57087;SDS011;42965;52.846;6.614;2022-10-14T07:55:04;54.85;;;33.38;;
57087;SDS011;42965;52.846;6.614;2022-10-14T07:57:31;60.05;;;31.15;;
57087;SDS011;42965;52.846;6.614;2022-10-14T07:59:58;55.10;;;31.90;;
57087;SDS011;42965;52.846;6.614;2022-10-14T08:02:24;51.80;;;31.80;;
57087;SDS011;42965;52.846;6.614;2022-10-14T08:04:51;53.33;;;31.60;;
57087;SDS011;42965;52.846;6.614;2022-10-14T08:07:19;54.78;;;31.85;;
57087;SDS011;42965;52.846;6.614;2022-10-14T08:09:46;50.78;;;31.88;;
57087;SDS011;42965;52.846;6.614;2022-10-14T08:12:12;56.17;;;32.90;;
57087;SDS011;42965;52.846;6.614;2022-10-14T08:14:39;52.95;;;31.70;;
57087;SDS011;42965;52.846;6.614;2022-10-14T08:17:06;60.38;;;32.90;;
57087;SDS011;42965;52.846;6.614;2022-10-14T08:19:32;61.58;;;32.72;;
57087;SDS011;42965;52.846;6.614;2022-10-14T08:21:58;56.05;;;32.72;;
57087;SDS011;42965;52.846;6.614;2022-10-14T08:24:24;58.05;;;35.55;;
57087;SDS011;42965;52.846;6.614;2022-10-14T08:26:54;65.65;;;35.13;;
57087;SDS011;42965;52.846;6.614;2022-10-14T08:29:22;58.88;;;32.78;;
57087;SDS011;42965;52.846;6.614;2022-10-14T08:31:50;60.40;;;35.45;;
57087;SDS011;42965;52.846;6.614;2022-10-14T08:34:17;53.65;;;33.58;;
57087;SDS011;42965;52.846;6.614;2022-10-14T08:36:46;59.92;;;35.05;;
57087;SDS011;42965;52.846;6.614;2022-10-14T08:39:15;56.28;;;32.33;;
57087;SDS011;42965;52.846;6.614;2022-10-14T08:44:42;55.60;;;33.63;;
57087;SDS011;42965;52.846;6.614;2022-10-14T08:47:19;52.28;;;32.67;;
57087;SDS011;42965;52.846;6.614;2022-10-14T08:54:48;53.78;;;33.83;;
57087;SDS011;42965;52.846;6.614;2022-10-14T08:57:21;57.53;;;34.08;;
57087;SDS011;42965;52.846;6.614;2022-10-14T08:59:50;60.28;;;36.03;;
57087;SDS011;42965;52.846;6.614;2022-10-14T09:02:33;55.05;;;33.20;;
57087;SDS011;42965;52.846;6.614;2022-10-14T09:05:15;67.18;;;35.55;;
57087;SDS011;42965;52.846;6.614;2022-10-14T09:07:53;69.35;;;37.53;;
57087;SDS011;42965;52.846;6.614;2022-10-14T09:10:26;74.47;;;37.83;;
57087;SDS011;42965;52.846;6.614;2022-10-14T09:13:09;65.93;;;37.47;;
57087;SDS011;42965;52.846;6.614;2022-10-14T09:15:41;74.13;;;38.38;;
57087;SDS011;42965;52.846;6.614;2022-10-14T09:18:22;75.32;;;38.92;;
57087;SDS011;42965;52.846;6.614;2022-10-14T09:20:54;75.60;;;38.47;;
57087;SDS011;42965;52.846;6.614;2022-10-14T09:23:23;89.13;;;41.00;;
57087;SDS011;42965;52.846;6.614;2022-10-14T09:31:01;106.72;;;50.33;;
57087;SDS011;42965;52.846;6.614;2022-10-14T09:33:28;110.40;;;49.95;;
57087;SDS011;42965;52.846;6.614;2022-10-14T09:35:55;123.55;;;49.58;;
57087;SDS011;42965;52.846;6.614;2022-10-14T09:38:23;100.25;;;44.35;;
57087;SDS011;42965;52.846;6.614;2022-10-14T09:40:51;99.15;;;43.15;;
57087;SDS011;42965;52.846;6.614;2022-10-14T09:43:21;109.53;;;43.27;;
57087;SDS011;42965;52.846;6.614;2022-10-14T09:45:50;102.55;;;42.78;;
57087;SDS011;42965;52.846;6.614;2022-10-14T09:48:30;110.88;;;41.78;;
57087;SDS011;42965;52.846;6.614;2022-10-14T09:50:58;101.90;;;41.50;;
57087;SDS011;42965;52.846;6.614;2022-10-14T09:53:30;118.45;;;42.72;;
57087;SDS011;42965;52.846;6.614;2022-10-14T09:56:00;122.53;;;44.70;;
57087;SDS011;42965;52.846;6.614;2022-10-14T09:58:37;95.63;;;38.88;;
57087;SDS011;42965;52.846;6.614;2022-10-14T10:01:17;117.82;;;42.65;;
57087;SDS011;42965;52.846;6.614;2022-10-14T10:03:46;112.07;;;42.20;;
57087;SDS011;42965;52.846;6.614;2022-10-14T10:06:15;106.70;;;40.28;;
57087;SDS011;42965;52.846;6.614;2022-10-14T10:11:30;78.90;;;31.33;;
57087;SDS011;42965;52.846;6.614;2022-10-14T10:14:14;103.32;;;37.38;;
57087;SDS011;42965;52.846;6.614;2022-10-14T10:16:45;111.43;;;40.08;;
57087;SDS011;42965;52.846;6.614;2022-10-14T10:19:26;106.93;;;35.83;;
57087;SDS011;42965;52.846;6.614;2022-10-14T10:21:55;92.82;;;35.33;;
57087;SDS011;42965;52.846;6.614;2022-10-14T10:24:41;87.70;;;34.05;;
57087;SDS011;42965;52.846;6.614;2022-10-14T10:27:22;95.93;;;33.78;;
57087;SDS011;42965;52.846;6.614;2022-10-14T10:29:49;111.10;;;36.53;;
57087;SDS011;42965;52.846;6.614;2022-10-14T10:32:22;82.18;;;33.25;;
57087;SDS011;42965;52.846;6.614;2022-10-14T10:38:32;84.55;;;29.05;;
57087;SDS011;42965;52.846;6.614;2022-10-14T10:44:14;73.18;;;31.17;;
57087;SDS011;42965;52.846;6.614;2022-10-14T10:51:53;64.72;;;28.73;;
57087;SDS011;42965;52.846;6.614;2022-10-14T10:57:22;93.90;;;33.67;;
57087;SDS011;42965;52.846;6.614;2022-10-14T11:00:14;71.93;;;31.42;;
57087;SDS011;42965;52.846;6.614;2022-10-14T11:02:52;85.15;;;31.52;;
57087;SDS011;42965;52.846;6.614;2022-10-14T11:11:26;71.13;;;29.65;;
57087;SDS011;42965;52.846;6.614;2022-10-14T11:17:12;82.13;;;32.83;;
57087;SDS011;42965;52.846;6.614;2022-10-14T11:19:53;88.05;;;34.33;;
57087;SDS011;42965;52.846;6.614;2022-10-14T11:22:41;80.18;;;32.50;;
57087;SDS011;42965;52.846;6.614;2022-10-14T11:39:12;129.88;;;46.17;;
57087;SDS011;42965;52.846;6.614;2022-10-14T11:47:56;154.55;;;47.65;;
57087;SDS011;42965;52.846;6.614;2022-10-14T11:50:40;147.40;;;50.88;;
57087;SDS011;42965;52.846;6.614;2022-10-14T11:53:14;128.68;;;49.30;;
57087;SDS011;42965;52.846;6.614;2022-10-14T11:55:47;135.52;;;51.60;;
57087;SDS011;42965;52.846;6.614;2022-10-14T11:58:23;171.13;;;55.47;;
57087;SDS011;42965;52.846;6.614;2022-10-14T12:00:52;147.68;;;53.95;;
57087;SDS011;42965;52.846;6.614;2022-10-14T12:06:20;185.77;;;57.67;;
57087;SDS011;42965;52.846;6.614;2022-10-14T12:12:02;152.82;;;55.95;;
57087;SDS011;42965;52.846;6.614;2022-10-14T12:14:53;147.57;;;62.03;;
57087;SDS011;42965;52.846;6.614;2022-10-14T12:22:57;135.13;;;53.15;;
57087;SDS011;42965;52.846;6.614;2022-10-14T12:25:27;170.45;;;55.65;;
57087;SDS011;42965;52.846;6.614;2022-10-14T12:28:01;116.90;;;50.72;;
57087;SDS011;42965;52.846;6.614;2022-10-14T12:30:30;164.82;;;56.70;;
57087;SDS011;42965;52.846;6.614;2022-10-14T12:33:05;102.50;;;48.53;;
57087;SDS011;42965;52.846;6.614;2022-10-14T12:35:45;144.52;;;52.50;;
57087;SDS011;42965;52.846;6.614;2022-10-14T12:38:26;98.60;;;44.58;;
57087;SDS011;42965;52.846;6.614;2022-10-14T12:41:44;110.18;;;48.17;;
57087;SDS011;42965;52.846;6.614;2022-10-14T12:43:59;112.03;;;47.95;;
57087;SDS011;42965;52.846;6.614;2022-10-14T12:46:29;109.78;;;46.60;;
57087;SDS011;42965;52.846;6.614;2022-10-14T12:48:56;85.38;;;43.00;;
57087;SDS011;42965;52.846;6.614;2022-10-14T12:51:25;78.85;;;40.88;;
57087;SDS011;42965;52.846;6.614;2022-10-14T12:53:53;75.63;;;38.78;;
57087;SDS011;42965;52.846;6.614;2022-10-14T12:57:14;63.90;;;37.67;;
57087;SDS011;42965;52.846;6.614;2022-10-14T12:59:40;65.50;;;36.80;;
57087;SDS011;42965;52.846;6.614;2022-10-14T13:02:17;59.92;;;38.50;;
57087;SDS011;42965;52.846;6.614;2022-10-14T13:05:04;49.60;;;32.55;;
57087;SDS011;42965;52.846;6.614;2022-10-14T13:16:09;36.80;;;26.77;;
57087;SDS011;42965;52.846;6.614;2022-10-14T13:24:00;30.23;;;24.63;;
57087;SDS011;42965;52.846;6.614;2022-10-14T13:26:39;23.85;;;21.20;;
57087;SDS011;42965;52.846;6.614;2022-10-14T13:38:17;25.85;;;22.30;;
57087;SDS011;42965;52.846;6.614;2022-10-14T13:40:48;27.42;;;23.10;;
57087;SDS011;42965;52.846;6.614;2022-10-14T13:43:24;24.40;;;21.80;;
57087;SDS011;42965;52.846;6.614;2022-10-14T13:46:01;31.42;;;23.42;;
57087;SDS011;42965;52.846;6.614;2022-10-14T13:48:36;24.52;;;22.02;;
57087;SDS011;42965;52.846;6.614;2022-10-14T13:53:54;24.65;;;22.23;;
57087;SDS011;42965;52.846;6.614;2022-10-14T13:56:24;23.42;;;21.05;;
57087;SDS011;42965;52.846;6.614;2022-10-14T13:58:56;23.15;;;20.55;;
57087;SDS011;42965;52.846;6.614;2022-10-14T14:01:28;23.70;;;21.20;;
57087;SDS011;42965;52.846;6.614;2022-10-14T14:03:58;35.50;;;31.73;;
57087;SDS011;42965;52.846;6.614;2022-10-14T14:06:25;25.33;;;22.80;;
57087;SDS011;42965;52.846;6.614;2022-10-14T14:08:56;24.70;;;21.95;;
57087;SDS011;42965;52.846;6.614;2022-10-14T14:11:27;26.42;;;23.73;;
57087;SDS011;42965;52.846;6.614;2022-10-14T14:16:37;27.00;;;24.23;;
57087;SDS011;42965;52.846;6.614;2022-10-14T14:19:15;26.40;;;23.58;;
57087;SDS011;42965;52.846;6.614;2022-10-14T14:27:49;31.25;;;27.25;;
57087;SDS011;42965;52.846;6.614;2022-10-14T14:30:27;29.85;;;25.75;;
57087;SDS011;42965;52.846;6.614;2022-10-14T14:33:00;28.92;;;26.02;;
57087;SDS011;42965;52.846;6.614;2022-10-14T14:35:29;28.52;;;25.05;;
57087;SDS011;42965;52.846;6.614;2022-10-14T14:37:55;29.73;;;26.50;;
57087;SDS011;42965;52.846;6.614;2022-10-14T14:40:23;30.02;;;26.67;;
57087;SDS011;42965;52.846;6.614;2022-10-14T14:42:56;29.88;;;26.23;;
57087;SDS011;42965;52.846;6.614;2022-10-14T14:45:26;30.90;;;27.70;;
57087;SDS011;42965;52.846;6.614;2022-10-14T14:48:00;30.38;;;26.45;;
57087;SDS011;42965;52.846;6.614;2022-10-14T14:50:34;28.60;;;25.50;;
57087;SDS011;42965;52.846;6.614;2022-10-14T14:53:06;27.33;;;24.17;;
57087;SDS011;42965;52.846;6.614;2022-10-14T14:58:28;27.23;;;23.27;;
57087;SDS011;42965;52.846;6.614;2022-10-14T15:01:04;26.65;;;23.85;;
57087;SDS011;42965;52.846;6.614;2022-10-14T15:03:34;25.98;;;23.35;;
57087;SDS011;42965;52.846;6.614;2022-10-14T15:06:20;25.90;;;23.38;;
57087;SDS011;42965;52.846;6.614;2022-10-14T15:08:48;26.75;;;24.05;;
57087;SDS011;42965;52.846;6.614;2022-10-14T15:11:16;27.17;;;24.33;;
57087;SDS011;42965;52.846;6.614;2022-10-14T15:13:47;27.85;;;25.00;;
57087;SDS011;42965;52.846;6.614;2022-10-14T15:16:33;27.90;;;25.20;;
57087;SDS011;42965;52.846;6.614;2022-10-14T15:21:45;25.30;;;22.90;;
57087;SDS011;42965;52.846;6.614;2022-10-14T15:24:14;25.65;;;23.15;;
57087;SDS011;42965;52.846;6.614;2022-10-14T15:26:43;28.17;;;25.15;;
57087;SDS011;42965;52.846;6.614;2022-10-14T15:29:12;27.20;;;24.30;;
57087;SDS011;42965;52.846;6.614;2022-10-14T15:31:42;28.30;;;25.00;;
57087;SDS011;42965;52.846;6.614;2022-10-14T15:34:14;26.25;;;23.50;;
57087;SDS011;42965;52.846;6.614;2022-10-14T15:36:43;30.85;;;25.42;;
57087;SDS011;42965;52.846;6.614;2022-10-14T15:39:12;27.95;;;25.15;;
57087;SDS011;42965;52.846;6.614;2022-10-14T15:41:39;28.20;;;25.20;;
57087;SDS011;42965;52.846;6.614;2022-10-14T15:44:06;30.23;;;26.75;;
57087;SDS011;42965;52.846;6.614;2022-10-14T15:46:33;29.05;;;25.98;;
57087;SDS011;42965;52.846;6.614;2022-10-14T15:49:30;31.33;;;25.90;;
57087;SDS011;42965;52.846;6.614;2022-10-14T15:52:05;26.77;;;23.95;;
57087;SDS011;42965;52.846;6.614;2022-10-14T15:54:31;28.85;;;25.23;;
57087;SDS011;42965;52.846;6.614;2022-10-14T15:56:58;32.83;;;26.67;;
57087;SDS011;42965;52.846;6.614;2022-10-14T15:59:24;34.70;;;27.27;;
57087;SDS011;42965;52.846;6.614;2022-10-14T16:01:51;42.10;;;30.17;;
57087;SDS011;42965;52.846;6.614;2022-10-14T16:04:21;36.25;;;29.63;;
57087;SDS011;42965;52.846;6.614;2022-10-14T16:06:50;39.08;;;31.52;;
57087;SDS011;42965;52.846;6.614;2022-10-14T16:09:23;33.20;;;29.65;;
57087;SDS011;42965;52.846;6.614;2022-10-14T16:11:52;41.90;;;31.95;;
57087;SDS011;42965;52.846;6.614;2022-10-14T16:14:24;38.33;;;31.77;;
57087;SDS011;42965;52.846;6.614;2022-10-14T16:16:52;37.30;;;29.60;;
57087;SDS011;42965;52.846;6.614;2022-10-14T16:19:19;40.20;;;31.52;;
57087;SDS011;42965;52.846;6.614;2022-10-14T16:21:45;35.00;;;28.52;;
57087;SDS011;42965;52.846;6.614;2022-10-14T16:24:16;36.47;;;29.70;;
57087;SDS011;42965;52.846;6.614;2022-10-14T16:26:45;31.55;;;27.58;;
57087;SDS011;42965;52.846;6.614;2022-10-14T16:29:15;38.38;;;29.05;;
57087;SDS011;42965;52.846;6.614;2022-10-14T16:31:43;31.35;;;26.77;;
57087;SDS011;42965;52.846;6.614;2022-10-14T16:34:18;29.42;;;25.92;;
57087;SDS011;42965;52.846;6.614;2022-10-14T16:36:45;44.72;;;34.38;;
57087;SDS011;42965;52.846;6.614;2022-10-14T16:39:13;36.30;;;26.85;;
57087;SDS011;42965;52.846;6.614;2022-10-14T16:41:40;32.53;;;26.23;;
57087;SDS011;42965;52.846;6.614;2022-10-14T16:44:07;33.55;;;26.50;;
57087;SDS011;42965;52.846;6.614;2022-10-14T16:46:54;53.75;;;31.33;;
57087;SDS011;42965;52.846;6.614;2022-10-14T16:49:42;35.97;;;27.10;;
57087;SDS011;42965;52.846;6.614;2022-10-14T16:52:09;48.90;;;33.00;;
57087;SDS011;42965;52.846;6.614;2022-10-14T16:54:36;52.10;;;33.05;;
57087;SDS011;42965;52.846;6.614;2022-10-14T16:57:02;48.60;;;32.15;;
57087;SDS011;42965;52.846;6.614;2022-10-14T16:59:30;35.60;;;27.95;;
57087;SDS011;42965;52.846;6.614;2022-10-14T17:01:57;44.10;;;30.50;;
57087;SDS011;42965;52.846;6.614;2022-10-14T17:04:24;34.00;;;26.30;;
57087;SDS011;42965;52.846;6.614;2022-10-14T17:06:56;29.65;;;23.08;;
57087;SDS011;42965;52.846;6.614;2022-10-14T17:09:23;28.95;;;23.63;;